sensor_id;sensor_type;location;lat;lon;timestamp;pressure;altitude;pressure_sealevel;temperature;humidity
59194;BME280;44967;48.598;15.650;2023-02-22T00:00:18;98331.75;;;6.34;77.72
59194;BME280;44967;48.598;15.650;2023-02-22T00:02:51;98335.22;;;6.36;77.04
59194;BME280;44967;48.598;15.650;2023-02-22T00:05:19;98328.25;;;6.32;76.60
59194;BME280;44967;48.598;15.650;2023-02-22T00:07:46;98331.81;;;6.28;76.95
59194;BME280;44967;48.598;15.650;2023-02-22T00:10:13;98329.25;;;6.25;76.53
59194;BME280;44967;48.598;15.650;2023-02-22T00:12:41;98334.47;;;6.25;77.28
59194;BME280;44967;48.598;15.650;2023-02-22T00:15:08;98327.53;;;6.21;77.14
59194;BME280;44967;48.598;15.650;2023-02-22T00:17:35;98327.44;;;6.29;77.38
59194;BME280;44967;48.598;15.650;2023-02-22T00:20:02;98329.19;;;6.28;78.36
59194;BME280;44967;48.598;15.650;2023-02-22T00:22:30;98324.81;;;6.32;78.50
59194;BME280;44967;48.598;15.650;2023-02-22T00:24:56;98325.69;;;6.31;78.58
59194;BME280;44967;48.598;15.650;2023-02-22T00:27:22;98325.56;;;6.38;77.85
59194;BME280;44967;48.598;15.650;2023-02-22T00:29:48;98326.44;;;6.39;78.05
59194;BME280;44967;48.598;15.650;2023-02-22T00:32:13;98316.72;;;6.45;77.89
59194;BME280;44967;48.598;15.650;2023-02-22T00:34:40;98318.47;;;6.46;77.57
59194;BME280;44967;48.598;15.650;2023-02-22T00:37:05;98319.34;;;6.45;77.66
59194;BME280;44967;48.598;15.650;2023-02-22T00:39:31;98314.03;;;6.51;77.81
59194;BME280;44967;48.598;15.650;2023-02-22T00:41:57;98323.59;;;6.54;77.92
59194;BME280;44967;48.598;15.650;2023-02-22T00:44:23;98319.22;;;6.54;77.10
59194;BME280;44967;48.598;15.650;2023-02-22T00:46:49;98319.22;;;6.54;77.67
59194;BME280;44967;48.598;15.650;2023-02-22T00:49:15;98323.56;;;6.57;77.35
59194;BME280;44967;48.598;15.650;2023-02-22T00:51:41;98327.97;;;6.55;77.34
59194;BME280;44967;48.598;15.650;2023-02-22T00:54:07;98322.69;;;6.56;76.72
59194;BME280;44967;48.598;15.650;2023-02-22T00:56:36;98328.03;;;6.50;77.21
59194;BME280;44967;48.598;15.650;2023-02-22T00:59:02;98323.66;;;6.49;76.20
59194;BME280;44967;48.598;15.650;2023-02-22T01:01:30;98328.09;;;6.46;76.38
59194;BME280;44967;48.598;15.650;2023-02-22T01:03:56;98328.94;;;6.48;76.64
59194;BME280;44967;48.598;15.650;2023-02-22T01:06:22;98324.53;;;6.51;76.51
59194;BME280;44967;48.598;15.650;2023-02-22T01:08:48;98325.41;;;6.49;76.02
59194;BME280;44967;48.598;15.650;2023-02-22T01:11:15;98315.88;;;6.43;76.95
59194;BME280;44967;48.598;15.650;2023-02-22T01:13:41;98320.28;;;6.43;76.90
59194;BME280;44967;48.598;15.650;2023-02-22T01:16:09;98313.28;;;6.42;77.05
59194;BME280;44967;48.598;15.650;2023-02-22T01:18:35;98313.31;;;6.39;76.36
59194;BME280;44967;48.598;15.650;2023-02-22T01:21:05;98316.78;;;6.42;76.94
59194;BME280;44967;48.598;15.650;2023-02-22T01:23:31;98316.75;;;6.44;76.94
59194;BME280;44967;48.598;15.650;2023-02-22T01:25:57;98315.78;;;6.49;76.57
59194;BME280;44967;48.598;15.650;2023-02-22T01:28:23;98311.41;;;6.50;76.94
59194;BME280;44967;48.598;15.650;2023-02-22T01:30:49;98312.44;;;6.38;77.32
59194;BME280;44967;48.598;15.650;2023-02-22T01:33:15;98309.97;;;6.28;76.66
59194;BME280;44967;48.598;15.650;2023-02-22T01:35:42;98309.94;;;6.29;77.19
59194;BME280;44967;48.598;15.650;2023-02-22T01:38:09;98306.59;;;6.16;77.81
59194;BME280;44967;48.598;15.650;2023-02-22T01:40:37;98307.38;;;6.26;77.57
59194;BME280;44967;48.598;15.650;2023-02-22T01:43:22;98306.44;;;6.29;78.18
59194;BME280;44967;48.598;15.650;2023-02-22T01:46:02;98299.31;;;6.40;77.56
59194;BME280;44967;48.598;15.650;2023-02-22T01:48:41;98303.66;;;6.42;77.61
59194;BME280;44967;48.598;15.650;2023-02-22T01:51:24;98299.34;;;6.38;77.28
59194;BME280;44967;48.598;15.650;2023-02-22T01:53:59;98295.06;;;6.31;77.87
59194;BME280;44967;48.598;15.650;2023-02-22T01:56:29;98295.94;;;6.32;77.61
59194;BME280;44967;48.598;15.650;2023-02-22T01:59:00;98303.81;;;6.32;77.23
59194;BME280;44967;48.598;15.650;2023-02-22T02:01:27;98290.69;;;6.30;77.55
59194;BME280;44967;48.598;15.650;2023-02-22T02:03:56;98291.47;;;6.38;77.09
59194;BME280;44967;48.598;15.650;2023-02-22T02:06:23;98289.66;;;6.43;77.54
59194;BME280;44967;48.598;15.650;2023-02-22T02:12:07;98286.91;;;6.49;77.38
59194;BME280;44967;48.598;15.650;2023-02-22T02:14:34;98286.97;;;6.45;78.24
59194;BME280;44967;48.598;15.650;2023-02-22T02:17:07;98280.84;;;6.47;77.89
59194;BME280;44967;48.598;15.650;2023-02-22T02:20:04;98279.03;;;6.49;76.94
59194;BME280;44967;48.598;15.650;2023-02-22T02:33:28;98275.53;;;6.50;77.58
59194;BME280;44967;48.598;15.650;2023-02-22T02:38:44;98269.47;;;6.47;77.34
59194;BME280;44967;48.598;15.650;2023-02-22T02:41:15;98262.47;;;6.44;77.54
59194;BME280;44967;48.598;15.650;2023-02-22T02:46:36;98264.97;;;6.53;77.48
59194;BME280;44967;48.598;15.650;2023-02-22T02:49:14;98256.31;;;6.48;77.58
59194;BME280;44967;48.598;15.650;2023-02-22T02:51:46;98254.72;;;6.38;77.75
59194;BME280;44967;48.598;15.650;2023-02-22T02:54:15;98250.34;;;6.39;78.36
59194;BME280;44967;48.598;15.650;2023-02-22T02:56:41;98250.34;;;6.39;78.26
59194;BME280;44967;48.598;15.650;2023-02-22T02:59:23;98247.66;;;6.40;78.33
59194;BME280;44967;48.598;15.650;2023-02-22T03:05:19;98250.28;;;6.40;78.87
59194;BME280;44967;48.598;15.650;2023-02-22T03:16:51;98252.28;;;6.25;77.94
59194;BME280;44967;48.598;15.650;2023-02-22T03:19:39;98255.00;;;6.20;77.96
59194;BME280;44967;48.598;15.650;2023-02-22T03:22:26;98254.88;;;6.26;78.16
59194;BME280;44967;48.598;15.650;2023-02-22T03:25:07;98258.16;;;6.40;78.59
59194;BME280;44967;48.598;15.650;2023-02-22T03:27:38;98261.59;;;6.45;77.08
59194;BME280;44967;48.598;15.650;2023-02-22T03:30:17;98256.41;;;6.41;77.36
59194;BME280;44967;48.598;15.650;2023-02-22T03:32:49;98255.63;;;6.36;78.01
59194;BME280;44967;48.598;15.650;2023-02-22T03:35:20;98255.53;;;6.42;77.58
59194;BME280;44967;48.598;15.650;2023-02-22T03:37:53;98252.84;;;6.45;78.48
59194;BME280;44967;48.598;15.650;2023-02-22T03:40:33;98259.91;;;6.41;77.99
59194;BME280;44967;48.598;15.650;2023-02-22T03:43:05;98257.28;;;6.41;78.31
59194;BME280;44967;48.598;15.650;2023-02-22T03:45:33;98258.16;;;6.40;78.56
59194;BME280;44967;48.598;15.650;2023-02-22T03:48:15;98259.84;;;6.46;77.98
59194;BME280;44967;48.598;15.650;2023-02-22T03:50:42;98269.41;;;6.50;78.00
59194;BME280;44967;48.598;15.650;2023-02-22T03:53:08;98257.97;;;6.55;77.59
59194;BME280;44967;48.598;15.650;2023-02-22T03:55:35;98264.16;;;6.50;77.84
59194;BME280;44967;48.598;15.650;2023-02-22T03:58:09;98267.66;;;6.49;77.97
59194;BME280;44967;48.598;15.650;2023-02-22T04:00:36;98262.53;;;6.43;77.89
59194;BME280;44967;48.598;15.650;2023-02-22T04:03:02;98269.47;;;6.45;78.16
59194;BME280;44967;48.598;15.650;2023-02-22T04:05:28;98264.19;;;6.48;78.39
59194;BME280;44967;48.598;15.650;2023-02-22T04:07:55;98262.41;;;6.50;77.74
59194;BME280;44967;48.598;15.650;2023-02-22T04:10:22;98261.53;;;6.50;77.05
59194;BME280;44967;48.598;15.650;2023-02-22T04:12:48;98262.53;;;6.41;78.32
59194;BME280;44967;48.598;15.650;2023-02-22T04:15:21;98263.41;;;6.40;78.14
59194;BME280;44967;48.598;15.650;2023-02-22T04:17:47;98260.78;;;6.43;78.94
59194;BME280;44967;48.598;15.650;2023-02-22T04:20:13;98265.09;;;6.44;78.42
59194;BME280;44967;48.598;15.650;2023-02-22T04:22:39;98265.97;;;6.46;78.26
59194;BME280;44967;48.598;15.650;2023-02-22T04:25:06;98262.47;;;6.46;78.61
59194;BME280;44967;48.598;15.650;2023-02-22T04:27:32;98269.47;;;6.47;78.25
59194;BME280;44967;48.598;15.650;2023-02-22T04:29:58;98266.91;;;6.42;79.01
59194;BME280;44967;48.598;15.650;2023-02-22T04:32:24;98261.84;;;6.30;78.85
59194;BME280;44967;48.598;15.650;2023-02-22T04:34:49;98255.59;;;6.39;79.39
59194;BME280;44967;48.598;15.650;2023-02-22T04:37:15;98257.22;;;6.47;78.74
59194;BME280;44967;48.598;15.650;2023-02-22T04:39:41;98259.78;;;6.50;79.18
59194;BME280;44967;48.598;15.650;2023-02-22T04:42:06;98251.06;;;6.48;78.64
59194;BME280;44967;48.598;15.650;2023-02-22T04:44:32;98246.66;;;6.49;78.95
59194;BME280;44967;48.598;15.650;2023-02-22T04:46:58;98248.44;;;6.48;78.89
59194;BME280;44967;48.598;15.650;2023-02-22T04:49:24;98248.38;;;6.53;78.59
59194;BME280;44967;48.598;15.650;2023-02-22T04:51:50;98244.84;;;6.54;79.19
59194;BME280;44967;48.598;15.650;2023-02-22T04:54:16;98236.06;;;6.56;79.25
59194;BME280;44967;48.598;15.650;2023-02-22T04:56:43;98236.03;;;6.59;79.00
59194;BME280;44967;48.598;15.650;2023-02-22T04:59:09;98240.34;;;6.62;78.45
59194;BME280;44967;48.598;15.650;2023-02-22T05:01:36;98240.31;;;6.65;78.63
59194;BME280;44967;48.598;15.650;2023-02-22T05:04:05;98237.63;;;6.68;78.77
59194;BME280;44967;48.598;15.650;2023-02-22T05:06:31;98229.78;;;6.65;78.68
59194;BME280;44967;48.598;15.650;2023-02-22T05:08:57;98230.69;;;6.64;78.15
59194;BME280;44967;48.598;15.650;2023-02-22T05:11:23;98230.69;;;6.64;78.39
59194;BME280;44967;48.598;15.650;2023-02-22T05:13:49;98229.78;;;6.65;79.10
59194;BME280;44967;48.598;15.650;2023-02-22T05:16:15;98233.22;;;6.69;78.51
59194;BME280;44967;48.598;15.650;2023-02-22T05:18:41;98231.44;;;6.72;78.31
59194;BME280;44967;48.598;15.650;2023-02-22T05:21:07;98234.03;;;6.75;79.35
59194;BME280;44967;48.598;15.650;2023-02-22T05:23:32;98231.44;;;6.72;78.53
59194;BME280;44967;48.598;15.650;2023-02-22T05:26:01;98219.22;;;6.71;79.37
59194;BME280;44967;48.598;15.650;2023-02-22T05:28:27;98223.59;;;6.69;78.47
59194;BME280;44967;48.598;15.650;2023-02-22T05:30:52;98221.91;;;6.65;78.75
59194;BME280;44967;48.598;15.650;2023-02-22T05:33:18;98221.91;;;6.65;79.39
59194;BME280;44967;48.598;15.650;2023-02-22T05:35:44;98224.59;;;6.62;78.39
59194;BME280;44967;48.598;15.650;2023-02-22T05:38:13;98226.28;;;6.68;78.58
59194;BME280;44967;48.598;15.650;2023-02-22T05:40:41;98226.28;;;6.68;78.20
59194;BME280;44967;48.598;15.650;2023-02-22T05:43:07;98226.34;;;6.61;78.21
59194;BME280;44967;48.598;15.650;2023-02-22T05:45:32;98224.66;;;6.57;77.91
59194;BME280;44967;48.598;15.650;2023-02-22T05:47:58;98225.59;;;6.55;77.68
59194;BME280;44967;48.598;15.650;2023-02-22T05:50:24;98226.47;;;6.55;77.45
59194;BME280;44967;48.598;15.650;2023-02-22T05:52:51;98221.22;;;6.55;77.99
59194;BME280;44967;48.598;15.650;2023-02-22T05:55:19;98223.03;;;6.50;77.78
59194;BME280;44967;48.598;15.650;2023-02-22T05:57:45;98228.28;;;6.50;77.93
59194;BME280;44967;48.598;15.650;2023-02-22T06:00:17;98228.28;;;6.50;78.24
59194;BME280;44967;48.598;15.650;2023-02-22T06:02:43;98229.16;;;6.51;79.11
59194;BME280;44967;48.598;15.650;2023-02-22T06:05:09;98229.97;;;6.54;78.97
59194;BME280;44967;48.598;15.650;2023-02-22T06:07:35;98235.16;;;6.57;79.09
59194;BME280;44967;48.598;15.650;2023-02-22T06:10:01;98235.16;;;6.57;78.21
59194;BME280;44967;48.598;15.650;2023-02-22T06:12:26;98232.47;;;6.63;77.73
59194;BME280;44967;48.598;15.650;2023-02-22T06:14:52;98235.09;;;6.63;77.63
59194;BME280;44967;48.598;15.650;2023-02-22T06:17:18;98235.09;;;6.63;77.53
59194;BME280;44967;48.598;15.650;2023-02-22T06:19:43;98228.03;;;6.66;77.44
59194;BME280;44967;48.598;15.650;2023-02-22T06:22:17;98234.09;;;6.71;77.32
59194;BME280;44967;48.598;15.650;2023-02-22T06:24:43;98241.91;;;6.74;78.29
59194;BME280;44967;48.598;15.650;2023-02-22T06:27:09;98238.41;;;6.75;77.95
59194;BME280;44967;48.598;15.650;2023-02-22T06:29:34;98247.16;;;6.75;78.04
59194;BME280;44967;48.598;15.650;2023-02-22T06:32:01;98240.22;;;6.70;77.97
59194;BME280;44967;48.598;15.650;2023-02-22T06:34:26;98239.41;;;6.68;78.58
59194;BME280;44967;48.598;15.650;2023-02-22T06:36:52;98246.31;;;6.72;77.87
59194;BME280;44967;48.598;15.650;2023-02-22T06:39:17;98244.53;;;6.75;78.62
59194;BME280;44967;48.598;15.650;2023-02-22T06:41:44;98245.38;;;6.76;78.54
59194;BME280;44967;48.598;15.650;2023-02-22T06:44:12;98244.53;;;6.75;77.78
59194;BME280;44967;48.598;15.650;2023-02-22T06:46:39;98247.91;;;6.83;78.35
59194;BME280;44967;48.598;15.650;2023-02-22T06:49:05;98253.25;;;6.77;78.79
59194;BME280;44967;48.598;15.650;2023-02-22T06:51:35;98254.88;;;6.84;77.83
59194;BME280;44967;48.598;15.650;2023-02-22T06:54:01;98253.97;;;6.87;77.71
59194;BME280;44967;48.598;15.650;2023-02-22T06:56:27;98259.25;;;6.84;77.46
59194;BME280;44967;48.598;15.650;2023-02-22T06:58:53;98257.34;;;6.92;77.45
59194;BME280;44967;48.598;15.650;2023-02-22T07:01:18;98260.94;;;6.88;77.86
59194;BME280;44967;48.598;15.650;2023-02-22T07:03:44;98266.13;;;6.92;77.89
59194;BME280;44967;48.598;15.650;2023-02-22T07:06:09;98262.47;;;7.01;77.87
59194;BME280;44967;48.598;15.650;2023-02-22T07:08:35;98262.47;;;7.02;77.24
59194;BME280;44967;48.598;15.650;2023-02-22T07:11:02;98261.47;;;7.08;77.38
59194;BME280;44967;48.598;15.650;2023-02-22T07:13:27;98267.63;;;7.07;77.32
59194;BME280;44967;48.598;15.650;2023-02-22T07:15:54;98264.09;;;7.08;77.03
59194;BME280;44967;48.598;15.650;2023-02-22T07:18:19;98265.75;;;7.14;77.16
59194;BME280;44967;48.598;15.650;2023-02-22T07:20:45;98262.19;;;7.16;77.47
59194;BME280;44967;48.598;15.650;2023-02-22T07:23:13;98257.72;;;7.23;76.41
59194;BME280;44967;48.598;15.650;2023-02-22T07:25:39;98260.31;;;7.24;76.86
59194;BME280;44967;48.598;15.650;2023-02-22T07:28:05;98264.59;;;7.30;76.82
59194;BME280;44967;48.598;15.650;2023-02-22T07:30:32;98262.72;;;7.35;77.17
59194;BME280;44967;48.598;15.650;2023-02-22T07:33:00;98263.44;;;7.44;75.73
59194;BME280;44967;48.598;15.650;2023-02-22T07:35:31;98258.94;;;7.51;76.23
59194;BME280;44967;48.598;15.650;2023-02-22T07:37:58;98254.44;;;7.57;76.43
59194;BME280;44967;48.598;15.650;2023-02-22T07:40:25;98259.56;;;7.64;75.89
59194;BME280;44967;48.598;15.650;2023-02-22T07:43:02;98265.47;;;7.75;75.98
59194;BME280;44967;48.598;15.650;2023-02-22T07:45:33;98255.63;;;7.86;75.75
59194;BME280;44967;48.598;15.650;2023-02-22T07:48:01;98253.72;;;7.94;75.72
59194;BME280;44967;48.598;15.650;2023-02-22T07:50:28;98253.66;;;7.97;75.02
59194;BME280;44967;48.598;15.650;2023-02-22T07:52:57;98257.16;;;7.96;74.26
59194;BME280;44967;48.598;15.650;2023-02-22T07:55:25;98250.88;;;8.03;75.07
59194;BME280;44967;48.598;15.650;2023-02-22T07:57:54;98250.69;;;8.12;75.58
59194;BME280;44967;48.598;15.650;2023-02-22T08:00:23;98247.88;;;8.21;74.90
59194;BME280;44967;48.598;15.650;2023-02-22T08:02:49;98242.00;;;8.48;74.44
59194;BME280;44967;48.598;15.650;2023-02-22T08:05:15;98236.66;;;8.51;73.84
59194;BME280;44967;48.598;15.650;2023-02-22T08:07:41;98238.25;;;8.59;73.80
59194;BME280;44967;48.598;15.650;2023-02-22T08:10:08;98234.50;;;8.69;74.21
59194;BME280;44967;48.598;15.650;2023-02-22T08:12:36;98235.22;;;8.75;73.64
59194;BME280;44967;48.598;15.650;2023-02-22T08:15:04;98242.63;;;8.95;73.26
59194;BME280;44967;48.598;15.650;2023-02-22T08:17:30;98234.69;;;8.96;72.83
59194;BME280;44967;48.598;15.650;2023-02-22T08:19:56;98235.22;;;9.09;72.76
59194;BME280;44967;48.598;15.650;2023-02-22T08:22:22;98234.97;;;9.20;72.54
59194;BME280;44967;48.598;15.650;2023-02-22T08:24:48;98236.47;;;9.28;72.22
59194;BME280;44967;48.598;15.650;2023-02-22T08:27:26;98229.19;;;9.39;71.75
59194;BME280;44967;48.598;15.650;2023-02-22T08:29:53;98230.84;;;9.42;71.76
59194;BME280;44967;48.598;15.650;2023-02-22T08:32:19;98230.63;;;9.51;71.34
59194;BME280;44967;48.598;15.650;2023-02-22T08:34:45;98227.19;;;9.48;70.68
59194;BME280;44967;48.598;15.650;2023-02-22T08:37:11;98230.72;;;9.48;70.75
59194;BME280;44967;48.598;15.650;2023-02-22T08:39:37;98228.31;;;9.70;70.42
59194;BME280;44967;48.598;15.650;2023-02-22T08:42:03;98223.66;;;9.79;69.79
59194;BME280;44967;48.598;15.650;2023-02-22T08:44:29;98229.88;;;9.77;70.07
59194;BME280;44967;48.598;15.650;2023-02-22T08:46:54;98226.09;;;9.87;69.48
59194;BME280;44967;48.598;15.650;2023-02-22T08:49:20;98225.63;;;10.02;68.89
59194;BME280;44967;48.598;15.650;2023-02-22T08:51:46;98222.94;;;10.04;69.22
59194;BME280;44967;48.598;15.650;2023-02-22T08:54:12;98229.72;;;10.12;68.73
59194;BME280;44967;48.598;15.650;2023-02-22T08:56:38;98231.13;;;10.25;68.76
59194;BME280;44967;48.598;15.650;2023-02-22T08:59:04;98227.91;;;10.44;68.43
59194;BME280;44967;48.598;15.650;2023-02-22T09:01:29;98226.72;;;10.54;69.40
59194;BME280;44967;48.598;15.650;2023-02-22T09:03:57;98220.88;;;10.98;68.06
59194;BME280;44967;48.598;15.650;2023-02-22T09:06:23;98229.06;;;11.17;67.37
59194;BME280;44967;48.598;15.650;2023-02-22T09:08:49;98222.22;;;11.36;67.13
59194;BME280;44967;48.598;15.650;2023-02-22T09:11:14;98223.28;;;11.55;67.76
59194;BME280;44967;48.598;15.650;2023-02-22T09:13:41;98221.03;;;11.45;66.25
59194;BME280;44967;48.598;15.650;2023-02-22T09:16:06;98227.31;;;11.65;66.66
59194;BME280;44967;48.598;15.650;2023-02-22T09:18:32;98227.84;;;11.52;65.02
59194;BME280;44967;48.598;15.650;2023-02-22T09:20:57;98218.22;;;11.49;64.67
59194;BME280;44967;48.598;15.650;2023-02-22T09:23:23;98219.84;;;11.28;65.26
59194;BME280;44967;48.598;15.650;2023-02-22T09:25:50;98225.88;;;11.32;65.39
59194;BME280;44967;48.598;15.650;2023-02-22T09:28:18;98228.56;;;11.30;65.27
59194;BME280;44967;48.598;15.650;2023-02-22T09:30:44;98224.09;;;11.32;65.41
59194;BME280;44967;48.598;15.650;2023-02-22T09:33:15;98219.84;;;11.28;65.34
59194;BME280;44967;48.598;15.650;2023-02-22T09:35:43;98222.69;;;11.47;65.28
59194;BME280;44967;48.598;15.650;2023-02-22T09:38:15;98221.63;;;11.53;65.22
59194;BME280;44967;48.598;15.650;2023-02-22T09:40:46;98207.66;;;11.49;65.58
59194;BME280;44967;48.598;15.650;2023-02-22T09:43:34;98213.13;;;11.68;64.65
59194;BME280;44967;48.598;15.650;2023-02-22T09:51:44;98210.41;;;11.94;64.14
59194;BME280;44967;48.598;15.650;2023-02-22T09:55:00;98204.84;;;12.02;61.69
59194;BME280;44967;48.598;15.650;2023-02-22T09:57:36;98205.81;;;11.99;61.63
59194;BME280;44967;48.598;15.650;2023-02-22T10:00:11;98199.06;;;12.14;61.81
59194;BME280;44967;48.598;15.650;2023-02-22T10:02:45;98199.31;;;12.31;60.90
59194;BME280;44967;48.598;15.650;2023-02-22T10:05:21;98197.03;;;12.44;60.57
59194;BME280;44967;48.598;15.650;2023-02-22T10:07:59;98198.75;;;12.45;59.32
59194;BME280;44967;48.598;15.650;2023-02-22T10:10:38;98200.31;;;12.50;59.97
59194;BME280;44967;48.598;15.650;2023-02-22T10:15:53;98194.50;;;12.62;59.79
59194;BME280;44967;48.598;15.650;2023-02-22T10:18:44;98193.41;;;12.68;59.15
59194;BME280;44967;48.598;15.650;2023-02-22T10:26:24;98182.00;;;12.88;58.15
59194;BME280;44967;48.598;15.650;2023-02-22T10:29:09;98178.56;;;12.84;56.95
59194;BME280;44967;48.598;15.650;2023-02-22T10:31:50;98185.25;;;12.94;57.03
59194;BME280;44967;48.598;15.650;2023-02-22T10:34:21;98184.88;;;13.03;57.27
59194;BME280;44967;48.598;15.650;2023-02-22T10:36:59;98184.97;;;13.00;56.79
59194;BME280;44967;48.598;15.650;2023-02-22T10:39:32;98185.50;;;13.08;56.82
59194;BME280;44967;48.598;15.650;2023-02-22T10:42:02;98185.66;;;13.05;56.91
59194;BME280;44967;48.598;15.650;2023-02-22T10:44:35;98178.06;;;13.18;55.98
59194;BME280;44967;48.598;15.650;2023-02-22T10:47:04;98182.41;;;12.99;55.90
59194;BME280;44967;48.598;15.650;2023-02-22T10:49:41;98179.19;;;13.12;56.57
59194;BME280;44967;48.598;15.650;2023-02-22T10:52:29;98182.50;;;12.96;56.76
59194;BME280;44967;48.598;15.650;2023-02-22T10:54:57;98183.91;;;13.04;55.95
59194;BME280;44967;48.598;15.650;2023-02-22T10:57:34;98172.34;;;13.07;56.28
59194;BME280;44967;48.598;15.650;2023-02-22T11:00:15;98169.16;;;12.77;56.49
59194;BME280;44967;48.598;15.650;2023-02-22T11:02:55;98164.06;;;12.93;56.67
59194;BME280;44967;48.598;15.650;2023-02-22T11:10:49;98161.63;;;13.08;55.44
59194;BME280;44967;48.598;15.650;2023-02-22T11:13:27;98162.63;;;13.06;55.30
59194;BME280;44967;48.598;15.650;2023-02-22T11:15:58;98153.28;;;12.97;55.52
59194;BME280;44967;48.598;15.650;2023-02-22T11:18:33;98156.53;;;13.04;55.32
59194;BME280;44967;48.598;15.650;2023-02-22T11:21:09;98147.34;;;13.12;54.60
59194;BME280;44967;48.598;15.650;2023-02-22T11:23:38;98140.78;;;13.21;54.59
59194;BME280;44967;48.598;15.650;2023-02-22T11:26:08;98144.00;;;13.48;54.46
59194;BME280;44967;48.598;15.650;2023-02-22T11:28:36;98136.88;;;13.30;54.11
59194;BME280;44967;48.598;15.650;2023-02-22T11:31:26;98139.13;;;13.39;53.72
59194;BME280;44967;48.598;15.650;2023-02-22T11:33:57;98136.44;;;13.59;54.27
59194;BME280;44967;48.598;15.650;2023-02-22T11:36:40;98133.00;;;13.57;53.40
59194;BME280;44967;48.598;15.650;2023-02-22T11:39:28;98137.94;;;13.46;53.74
59194;BME280;44967;48.598;15.650;2023-02-22T11:41:56;98132.75;;;13.43;54.45
59194;BME280;44967;48.598;15.650;2023-02-22T11:44:26;98131.13;;;13.59;53.78
59194;BME280;44967;48.598;15.650;2023-02-22T11:46:54;98121.53;;;13.75;53.00
59194;BME280;44967;48.598;15.650;2023-02-22T11:49:31;98123.44;;;13.53;52.81
59194;BME280;44967;48.598;15.650;2023-02-22T11:52:23;98118.34;;;13.48;53.48
59194;BME280;44967;48.598;15.650;2023-02-22T11:55:02;98117.06;;;13.57;54.00
59194;BME280;44967;48.598;15.650;2023-02-22T11:57:41;98111.91;;;13.54;53.19
59194;BME280;44967;48.598;15.650;2023-02-22T12:02:58;98104.88;;;13.72;53.06
59194;BME280;44967;48.598;15.650;2023-02-22T12:08:23;98104.75;;;13.75;52.86
59194;BME280;44967;48.598;15.650;2023-02-22T12:11:33;98104.75;;;13.93;52.68
59194;BME280;44967;48.598;15.650;2023-02-22T12:19:20;98094.19;;;13.54;52.56
59194;BME280;44967;48.598;15.650;2023-02-22T12:21:57;98098.50;;;13.37;52.59
59194;BME280;44967;48.598;15.650;2023-02-22T12:24:45;98091.13;;;13.43;53.54
59194;BME280;44967;48.598;15.650;2023-02-22T12:27:26;98097.91;;;13.50;52.85
59194;BME280;44967;48.598;15.650;2023-02-22T12:30:20;98092.00;;;13.23;52.87
59194;BME280;44967;48.598;15.650;2023-02-22T12:33:21;98089.78;;;13.35;53.35
59194;BME280;44967;48.598;15.650;2023-02-22T12:35:51;98084.03;;;13.44;53.21
59194;BME280;44967;48.598;15.650;2023-02-22T12:38:38;98078.84;;;13.22;52.20
59194;BME280;44967;48.598;15.650;2023-02-22T12:43:38;98068.38;;;13.38;53.71
59194;BME280;44967;48.598;15.650;2023-02-22T12:46:33;98065.59;;;13.41;54.70
59194;BME280;44967;48.598;15.650;2023-02-22T12:49:18;98062.28;;;13.36;52.39
59194;BME280;44967;48.598;15.650;2023-02-22T12:54:38;98053.50;;;13.54;52.46
59194;BME280;44967;48.598;15.650;2023-02-22T12:57:31;98056.06;;;13.55;52.27
59194;BME280;44967;48.598;15.650;2023-02-22T13:00:09;98053.91;;;13.45;51.88
59194;BME280;44967;48.598;15.650;2023-02-22T13:02:53;98050.06;;;13.32;52.42
59194;BME280;44967;48.598;15.650;2023-02-22T13:05:21;98045.38;;;13.38;52.25
59194;BME280;44967;48.598;15.650;2023-02-22T13:18:42;98055.59;;;13.66;52.94
59194;BME280;44967;48.598;15.650;2023-02-22T13:21:23;98051.84;;;13.70;51.91
59194;BME280;44967;48.598;15.650;2023-02-22T13:24:24;98042.94;;;13.52;51.63
59194;BME280;44967;48.598;15.650;2023-02-22T13:29:26;98030.81;;;13.84;52.11
59194;BME280;44967;48.598;15.650;2023-02-22T13:32:13;98033.66;;;13.80;51.33
59194;BME280;44967;48.598;15.650;2023-02-22T13:35:06;98041.34;;;13.67;51.57
59194;BME280;44967;48.598;15.650;2023-02-22T13:43:27;98028.56;;;13.75;51.12
59194;BME280;44967;48.598;15.650;2023-02-22T13:46:25;98032.09;;;13.76;51.41
59194;BME280;44967;48.598;15.650;2023-02-22T13:51:50;98025.41;;;13.67;50.50
59194;BME280;44967;48.598;15.650;2023-02-22T13:54:39;98022.69;;;13.68;50.98
59194;BME280;44967;48.598;15.650;2023-02-22T13:57:43;98014.47;;;13.75;51.38
59194;BME280;44967;48.598;15.650;2023-02-22T14:10:57;98015.88;;;13.63;50.40
59194;BME280;44967;48.598;15.650;2023-02-22T14:13:28;98017.13;;;13.75;51.06
59194;BME280;44967;48.598;15.650;2023-02-22T14:21:07;98007.25;;;13.77;51.21
59194;BME280;44967;48.598;15.650;2023-02-22T14:23:34;98004.25;;;13.84;50.59
59194;BME280;44967;48.598;15.650;2023-02-22T14:33:56;97995.88;;;13.75;50.28
59194;BME280;44967;48.598;15.650;2023-02-22T14:36:46;97998.03;;;13.66;50.77
59194;BME280;44967;48.598;15.650;2023-02-22T14:39:26;97990.19;;;13.63;51.01
59194;BME280;44967;48.598;15.650;2023-02-22T14:42:00;97993.97;;;13.77;50.90
59194;BME280;44967;48.598;15.650;2023-02-22T14:44:40;97989.47;;;13.60;50.53
59194;BME280;44967;48.598;15.650;2023-02-22T14:47:15;97989.19;;;13.66;50.97
59194;BME280;44967;48.598;15.650;2023-02-22T14:49:46;97992.94;;;13.62;50.86
59194;BME280;44967;48.598;15.650;2023-02-22T14:52:28;97994.06;;;13.56;50.29
59194;BME280;44967;48.598;15.650;2023-02-22T14:55:06;97998.00;;;13.48;51.50
59194;BME280;44967;48.598;15.650;2023-02-22T15:00:43;97997.50;;;13.40;51.50
59194;BME280;44967;48.598;15.650;2023-02-22T15:03:30;98002.03;;;13.38;51.78
59194;BME280;44967;48.598;15.650;2023-02-22T15:06:15;97995.34;;;13.48;51.67
59194;BME280;44967;48.598;15.650;2023-02-22T15:08:43;97997.81;;;13.34;52.24
59194;BME280;44967;48.598;15.650;2023-02-22T15:11:27;97999.78;;;13.29;52.25
59194;BME280;44967;48.598;15.650;2023-02-22T15:13:58;98002.66;;;13.24;52.21